Time;durP1;ratioP1;P1;durP2;ratioP2;P2;SDS_P1;SDS_P2;PMS_P1;PMS_P2;Temp;Humidity;BMP_temperature;BMP_pressure;BME280_temperature;BME280_humidity;BME280_pressure;Samples;Min_cycle;Max_cycle;Signal;HPM_P1;HPM_P2
2024/01/29 00:00:46;;;;;;;;;59.67;46.67;;;;;5.39;73.88;102466.06;2018806;27;3627337;-74
2024/01/29 00:01:57;;;;;;;;;59.00;47.33;;;;;5.36;73.60;102468.59;2016627;27;3596116;-74
2024/01/29 00:03:09;;;;;;;;;56.67;44.67;;;;;5.36;73.67;102466.00;2031755;27;3625250;-74
2024/01/29 00:04:21;;;;;;;;;56.33;47.00;;;;;5.35;73.67;102465.97;2013749;27;3620133;-74
2024/01/29 00:05:32;;;;;;;;;60.20;47.60;;;;;5.33;73.79;102463.34;2006287;27;2873140;-74
2024/01/29 00:06:44;;;;;;;;;55.33;44.67;;;;;5.34;73.74;102465.09;2056553;27;3598157;-74
2024/01/29 00:07:56;;;;;;;;;54.00;44.00;;;;;5.34;73.77;102478.13;2015307;27;3602349;-74
2024/01/29 00:09:08;;;;;;;;;56.33;45.67;;;;;5.33;73.85;102476.41;2017430;27;3600304;-74
2024/01/29 00:10:22;;;;;;;;;56.67;45.33;;;;;5.33;73.94;102473.78;2031646;27;3596072;-74
2024/01/29 00:11:33;;;;;;;;;51.67;44.67;;;;;5.32;73.90;102479.84;2007669;27;3595066;-74
2024/01/29 00:12:44;;;;;;;;;57.80;46.40;;;;;5.32;73.97;102471.13;2034999;27;2874308;-74
2024/01/29 00:13:56;;;;;;;;;54.33;43.00;;;;;5.30;73.82;102478.94;2047637;27;3616877;-74
2024/01/29 00:15:08;;;;;;;;;58.60;45.40;;;;;5.31;74.01;102482.44;2010553;27;2866923;-74
2024/01/29 00:16:19;;;;;;;;;55.67;44.67;;;;;5.29;73.73;102475.44;2030834;27;3586704;-74
2024/01/29 00:17:31;;;;;;;;;59.00;46.00;;;;;5.29;73.73;102477.16;2022713;27;3631481;-74
2024/01/29 00:18:43;;;;;;;;;54.80;46.20;;;;;5.27;74.01;102476.28;2029838;27;3604346;-74
2024/01/29 00:19:55;;;;;;;;;57.33;48.00;;;;;5.27;73.42;102478.88;2047930;27;3605461;-74
2024/01/29 00:21:06;;;;;;;;;57.60;44.80;;;;;5.26;73.87;102478.00;2011196;27;2872102;-74
2024/01/29 00:22:18;;;;;;;;;55.33;45.33;;;;;5.26;73.81;102482.34;2056991;27;3594475;-74
2024/01/29 00:23:30;;;;;;;;;54.20;45.40;;;;;5.24;73.67;102482.31;2047881;27;3601275;-74
2024/01/29 00:24:42;;;;;;;;;58.00;46.00;;;;;5.23;74.04;102488.38;2023796;27;3596126;-74
2024/01/29 00:25:53;;;;;;;;;56.00;43.00;;;;;5.23;73.76;102483.19;2014880;27;2870036;-74
2024/01/29 00:27:06;;;;;;;;;54.86;42.57;;;;;5.23;73.99;102496.22;2049255;27;3600250;-74
2024/01/29 00:28:18;;;;;;;;;57.00;46.67;;;;;5.22;73.93;102478.81;2022423;27;3619049;-74
2024/01/29 00:29:30;;;;;;;;;58.33;44.33;;;;;5.22;73.75;102490.94;2027194;27;3622130;-74
2024/01/29 00:30:42;;;;;;;;;52.33;43.00;;;;;5.21;74.06;102484.00;2033707;27;3583564;-74
2024/01/29 00:31:53;;;;;;;;;55.00;45.33;;;;;5.21;73.53;102490.06;2046728;27;3604390;-74
2024/01/29 00:33:05;;;;;;;;;56.33;42.33;;;;;5.20;73.98;102484.84;2031673;27;3609620;-74
2024/01/29 00:34:19;;;;;;;;;58.43;46.00;;;;;5.20;73.80;102482.22;2032197;27;3608591;-74
2024/01/29 00:35:31;;;;;;;;;61.67;48.00;;;;;5.19;73.87;102486.56;2015839;27;3628342;-74
2024/01/29 00:36:45;;;;;;;;;61.63;47.50;;;;;5.18;74.37;102485.66;2024359;27;3636671;-74
2024/01/29 00:37:57;;;;;;;;;56.00;45.00;;;;;5.18;73.83;102492.63;2014723;27;3599217;-74
2024/01/29 00:39:09;;;;;;;;;54.80;42.60;;;;;5.17;73.99;102493.47;2009261;27;2869333;-74
2024/01/29 00:40:19;;;;;;;;;55.00;45.50;;;;;5.16;73.86;102495.19;2034981;27;2851290;-74
2024/01/29 00:41:31;;;;;;;;;57.00;46.40;;;;;5.17;73.82;102493.47;2056807;27;3599161;-74
2024/01/29 00:42:43;;;;;;;;;55.60;44.60;;;;;5.15;73.79;102490.84;2061137;27;3604374;-74
2024/01/29 00:43:55;;;;;;;;;53.60;42.80;;;;;5.15;74.08;102493.47;2029738;27;3589774;-74
2024/01/29 00:45:09;;;;;;;;;50.67;42.33;;;;;5.14;73.96;102491.69;2047234;27;3608600;-74
2024/01/29 00:46:20;;;;;;;;;57.67;46.33;;;;;5.14;74.01;102486.47;2007026;27;3610647;-74
2024/01/29 00:47:32;;;;;;;;;57.00;47.00;;;;;5.14;73.79;102494.28;2030151;27;3611689;-74
2024/01/29 00:48:44;;;;;;;;;52.00;43.00;;;;;5.14;73.47;102493.41;2021645;27;3597472;-74
2024/01/29 00:49:56;;;;;;;;;54.67;44.67;;;;;5.12;73.86;102490.78;2023196;27;3598182;-74
2024/01/29 00:51:09;;;;;;;;;54.43;44.14;;;;;5.12;73.99;102493.41;2023805;27;3599209;-74
2024/01/29 00:52:21;;;;;;;;;56.00;46.00;;;;;5.12;74.19;102482.09;2025695;27;3619043;-74
2024/01/29 00:53:34;;;;;;;;;55.86;45.43;;;;;5.11;73.76;102486.41;2032466;27;3607865;-74
2024/01/29 00:54:46;;;;;;;;;58.67;45.00;;;;;5.11;74.09;102478.59;2034425;27;3613842;-74
2024/01/29 00:55:58;;;;;;;;;54.67;45.00;;;;;5.11;73.62;102486.41;2029247;27;3603376;-74
2024/01/29 00:57:11;;;;;;;;;49.40;38.40;;;;;5.12;73.98;102482.09;2033208;27;3625226;-74
2024/01/29 00:58:23;;;;;;;;;57.00;46.33;;;;;5.11;74.32;102483.81;2018191;27;3608524;-74
2024/01/29 00:59:35;;;;;;;;;57.67;47.00;;;;;5.11;74.17;102477.75;2022262;27;3604440;-74
2024/01/29 01:00:50;;;;;;;;;53.67;44.00;;;;;5.11;74.00;102482.94;2040326;27;3601281;-74
2024/01/29 01:02:02;;;;;;;;;54.00;44.33;;;;;5.11;74.04;102483.81;2046919;27;3579390;-74
2024/01/29 01:03:14;;;;;;;;;52.40;42.20;;;;;5.12;74.09;102480.34;2051218;27;3599165;-74
2024/01/29 01:04:25;;;;;;;;;56.20;44.40;;;;;5.12;74.19;102485.56;2042871;27;3614770;-74
2024/01/29 01:05:37;;;;;;;;;53.67;44.00;;;;;5.13;74.38;102492.56;2024518;27;3593985;-74
2024/01/29 01:06:49;;;;;;;;;57.00;45.67;;;;;5.13;74.10;102492.56;2046237;27;3612749;-74
2024/01/29 01:08:02;;;;;;;;;59.67;47.33;;;;;5.13;74.41;102494.28;2031388;27;3616909;-74
2024/01/29 01:09:14;;;;;;;;;58.00;46.33;;;;;5.14;74.20;102498.63;2016045;27;3627305;-74
2024/01/29 01:10:26;;;;;;;;;57.00;46.00;;;;;5.13;74.72;102492.56;2016375;27;3607543;-74
2024/01/29 01:11:37;;;;;;;;;62.00;48.33;;;;;5.13;74.38;102486.47;2017447;27;3610658;-74
2024/01/29 01:12:49;;;;;;;;;54.60;45.20;;;;;5.14;74.73;102494.28;2035503;27;3603333;-74
2024/01/29 01:14:02;;;;;;;;;58.00;47.00;;;;;5.14;74.68;102491.69;2025180;27;3588757;-74
2024/01/29 01:15:13;;;;;;;;;53.00;43.00;;;;;5.15;74.54;102489.97;2035087;27;3585631;-74
2024/01/29 01:16:25;;;;;;;;;57.00;44.33;;;;;5.15;74.24;102490.84;2044978;27;3604420;-74
2024/01/29 01:17:39;;;;;;;;;55.14;46.00;;;;;5.14;74.58;102485.59;2027045;27;3604429;-74
2024/01/29 01:18:50;;;;;;;;;56.33;46.00;;;;;5.15;74.75;102480.44;2017730;27;3599225;-74
2024/01/29 01:20:03;;;;;;;;;58.00;46.33;;;;;5.14;74.49;102486.47;2033440;27;3621052;-74
2024/01/29 01:21:15;;;;;;;;;54.00;43.67;;;;;5.15;74.28;102483.03;2019197;27;3587735;-74
2024/01/29 01:22:26;;;;;;;;;58.00;45.67;;;;;5.15;74.47;102484.75;2041049;27;3612779;-74
2024/01/29 01:23:38;;;;;;;;;62.00;45.67;;;;;5.14;74.47;102483.88;2023185;27;3616933;-74
2024/01/29 01:24:50;;;;;;;;;56.67;45.00;;;;;5.15;74.81;102484.75;2033813;27;3606490;-74
2024/01/29 01:26:02;;;;;;;;;55.80;45.20;;;;;5.14;74.57;102483.88;2037605;27;3611637;-74
2024/01/29 01:27:16;;;;;;;;;57.00;44.40;;;;;5.15;74.41;102484.75;2031824;27;3594987;-74
2024/01/29 01:28:28;;;;;;;;;55.33;45.00;;;;;5.13;74.51;102487.34;2041054;27;3591945;-74
2024/01/29 01:29:40;;;;;;;;;54.67;44.00;;;;;5.13;74.28;102476.91;2049853;27;3592954;-74
2024/01/29 01:30:51;;;;;;;;;53.67;44.33;;;;;5.15;74.46;102484.75;2057392;27;3602369;-74
2024/01/29 01:32:03;;;;;;;;;57.00;45.00;;;;;5.14;74.36;102483.88;2019767;27;2866919;-74
2024/01/29 01:33:14;;;;;;;;;54.00;45.67;;;;;5.13;74.36;102484.75;2053827;27;3605439;-74
2024/01/29 01:34:27;;;;;;;;;59.14;46.86;;;;;5.14;74.85;102490.81;2058503;27;3609629;-74
2024/01/29 01:35:39;;;;;;;;;42.00;35.00;;;;;5.14;74.51;102486.47;2026953;27;3597136;-74
2024/01/29 01:36:51;;;;;;;;;58.00;43.67;;;;;5.14;74.62;102482.97;2045398;27;3628359;-74
2024/01/29 01:38:04;;;;;;;;;57.67;47.00;;;;;5.12;74.64;102475.16;2025785;27;3613806;-74
2024/01/29 01:39:15;;;;;;;;;57.00;44.00;;;;;5.15;74.63;102482.16;2018585;27;3610650;-74
2024/01/29 01:40:27;;;;;;;;;49.00;42.67;;;;;5.13;74.64;102482.13;2025188;27;3606517;-74
2024/01/29 01:41:39;;;;;;;;;56.33;44.00;;;;;5.14;74.59;102483.88;2008239;27;3610716;-74
2024/01/29 01:42:52;;;;;;;;;56.43;44.71;;;;;5.14;74.83;102494.28;2026038;27;3623161;-74
2024/01/29 01:44:05;;;;;;;;;58.43;46.43;;;;;5.14;74.47;102489.09;2034247;27;3614868;-74
2024/01/29 01:45:16;;;;;;;;;56.60;43.80;;;;;5.14;74.69;102494.28;2014319;27;2866898;-74
2024/01/29 01:46:28;;;;;;;;;56.00;44.33;;;;;5.14;74.24;102494.28;2057271;27;3609585;-74
2024/01/29 01:47:40;;;;;;;;;56.00;45.40;;;;;5.14;74.51;102499.50;2026109;27;3615831;-74
2024/01/29 01:48:56;;;;;;;;;57.67;46.00;;;;;5.14;74.46;102496.91;2012766;28;3618968;-74
2024/01/29 01:50:09;;;;;;;;;57.33;47.00;;;;;5.15;74.57;102510.81;2002642;27;3607538;-74
2024/01/29 01:51:22;;;;;;;;;56.33;44.67;;;;;5.14;74.63;102499.50;2016254;27;3605497;-74
2024/01/29 01:52:35;;;;;;;;;54.67;46.00;;;;;5.12;74.67;102490.78;2016342;27;3597104;-74
2024/01/29 01:53:46;;;;;;;;;58.00;47.50;;;;;5.13;74.72;102497.78;2041635;27;2871101;-74
2024/01/29 01:54:57;;;;;;;;;57.40;44.80;;;;;5.13;74.39;102502.97;2015481;27;3603324;-74
2024/01/29 01:56:08;;;;;;;;;58.00;45.20;;;;;5.13;74.30;102494.28;2045228;27;2873129;-74
2024/01/29 01:57:21;;;;;;;;;54.67;43.67;;;;;5.12;74.43;102503.81;2054564;27;3615837;-74
2024/01/29 01:58:33;;;;;;;;;57.00;47.00;;;;;5.13;74.62;102502.97;2013927;27;3604382;-74
2024/01/29 01:59:44;;;;;;;;;52.00;39.50;;;;;5.12;74.53;102503.81;2039549;27;2873272;-74
2024/01/29 02:00:56;;;;;;;;;59.33;47.00;;;;;5.11;74.32;102499.44;2015569;27;3603683;-74
2024/01/29 02:02:08;;;;;;;;;58.33;45.33;;;;;5.11;74.67;102499.44;2018866;27;3618472;-74
2024/01/29 02:03:20;;;;;;;;;59.67;46.00;;;;;5.10;74.42;102502.91;2017975;27;3603371;-74
2024/01/29 02:04:32;;;;;;;;;55.67;43.67;;;;;5.10;74.37;102502.03;2033668;27;3593336;-74
2024/01/29 02:05:45;;;;;;;;;57.33;46.67;;;;;5.09;74.25;102506.38;2022285;27;3611704;-74
2024/01/29 02:06:58;;;;;;;;;60.67;47.00;;;;;5.07;74.49;102506.34;2007022;27;3615901;-74
2024/01/29 02:08:10;;;;;;;;;57.67;48.33;;;;;5.06;74.35;102506.34;2004361;27;3609618;-74
2024/01/29 02:09:22;;;;;;;;;57.33;46.00;;;;;5.05;74.49;102501.94;2015276;27;3616937;-74
2024/01/29 02:10:34;;;;;;;;;55.00;43.67;;;;;5.04;74.54;102500.19;2014886;27;3615851;-74
2024/01/29 02:11:46;;;;;;;;;57.00;46.00;;;;;5.05;74.55;102505.44;2017690;27;3613818;-74
2024/01/29 02:12:59;;;;;;;;;56.86;45.57;;;;;5.03;74.39;102506.25;2032864;27;3602360;-74
2024/01/29 02:14:11;;;;;;;;;55.00;45.00;;;;;5.01;74.32;102508.81;2018418;27;3607557;-74
2024/01/29 02:15:23;;;;;;;;;47.67;40.67;;;;;5.01;74.58;102505.34;2033114;27;3591906;-74
2024/01/29 02:16:35;;;;;;;;;55.00;43.67;;;;;5.01;74.32;102507.97;2027892;27;3611740;-74
2024/01/29 02:17:47;;;;;;;;;53.60;43.80;;;;;5.01;74.56;102513.19;2026510;27;3598189;-74
2024/01/29 02:18:58;;;;;;;;;59.00;45.80;;;;;5.00;74.54;102511.41;2012184;27;2873628;-74
2024/01/29 02:20:11;;;;;;;;;53.33;41.67;;;;;4.98;74.27;102506.19;2048155;27;3601249;-74
2024/01/29 02:21:21;;;;;;;;;46.00;39.50;;;;;4.97;74.33;102507.00;2035389;27;2852304;-74
2024/01/29 02:22:33;;;;;;;;;56.00;42.67;;;;;4.95;74.15;102509.59;2032551;27;3607562;-74
2024/01/29 02:23:46;;;;;;;;;54.67;44.00;;;;;4.95;73.89;102509.59;2024909;27;3604390;-74
2024/01/29 02:24:57;;;;;;;;;55.00;45.00;;;;;4.95;74.24;102509.59;2008086;27;3602531;-74
2024/01/29 02:26:10;;;;;;;;;55.00;44.57;;;;;4.93;74.09;102508.69;2024202;27;3598213;-74
2024/01/29 02:27:22;;;;;;;;;31.00;26.33;;;;;4.92;74.25;102514.75;2023943;27;3595034;-74
2024/01/29 02:28:34;;;;;;;;;52.00;44.33;;;;;4.92;74.50;102512.13;2048761;27;3592938;-74
2024/01/29 02:29:47;;;;;;;;;57.43;45.57;;;;;4.92;74.31;102519.06;2056287;27;3606477;-74
2024/01/29 02:30:59;;;;;;;;;55.20;44.80;;;;;4.91;74.36;102512.13;2030782;27;3602334;-74
2024/01/29 02:32:11;;;;;;;;;53.60;42.80;;;;;4.90;74.35;102518.16;2038754;27;3586686;-74
2024/01/29 02:33:24;;;;;;;;;54.29;45.43;;;;;4.89;74.28;102519.88;2058654;27;3608544;-74
2024/01/29 02:34:36;;;;;;;;;60.33;47.00;;;;;4.88;74.20;102523.34;2030281;27;3636716;-74
2024/01/29 02:35:48;;;;;;;;;54.80;43.60;;;;;4.87;74.55;102524.19;2030022;27;3593965;-74
2024/01/29 02:37:00;;;;;;;;;59.20;46.60;;;;;4.86;74.80;102519.84;2045817;27;3607554;-74
2024/01/29 02:38:11;;;;;;;;;58.33;46.33;;;;;4.87;74.32;102521.59;2020945;27;3617967;-74
2024/01/29 02:39:24;;;;;;;;;57.20;44.40;;;;;4.86;74.23;102525.06;2021302;27;3607887;-74
2024/01/29 02:40:35;;;;;;;;;53.33;43.67;;;;;4.85;74.11;102518.06;2022291;27;3587725;-74
2024/01/29 02:41:47;;;;;;;;;55.67;44.67;;;;;4.84;74.30;102521.53;2023387;27;3601349;-74
2024/01/29 02:42:59;;;;;;;;;54.00;45.00;;;;;4.83;74.13;102519.78;2025438;27;3608572;-74
2024/01/29 02:44:11;;;;;;;;;50.33;41.33;;;;;4.83;74.19;102518.06;2032627;27;3588114;-74
2024/01/29 02:45:23;;;;;;;;;58.40;45.40;;;;;4.81;74.10;102516.28;2061339;27;3611657;-74
2024/01/29 02:46:39;;;;;;;;;52.80;42.40;;;;;4.81;74.18;102516.28;2062524;27;3603300;-74
2024/01/29 02:47:50;;;;;;;;;57.00;43.33;;;;;4.81;74.43;102516.28;2005434;27;3602282;-74
2024/01/29 02:49:03;;;;;;;;;56.00;43.57;;;;;4.79;74.21;102517.97;2021916;27;3600219;-74
2024/01/29 02:50:14;;;;;;;;;56.20;43.80;;;;;4.78;74.16;102509.28;2012743;27;2867981;-74
2024/01/29 02:51:26;;;;;;;;;56.33;43.33;;;;;4.77;74.28;102515.31;2048430;27;3601229;-74
2024/01/29 02:52:38;;;;;;;;;51.80;43.00;;;;;4.78;73.97;102516.19;2030849;27;3597086;-74
2024/01/29 02:53:51;;;;;;;;;55.57;43.86;;;;;4.77;74.22;102514.44;2058219;27;3593993;-74
2024/01/29 02:55:04;;;;;;;;;57.33;45.00;;;;;4.77;74.29;102514.44;2034342;27;3601627;-74
2024/01/29 02:56:15;;;;;;;;;52.33;43.33;;;;;4.76;74.28;102508.38;2007001;27;3585652;-74
2024/01/29 02:57:27;;;;;;;;;54.33;43.00;;;;;4.75;74.33;102510.91;2040554;27;3596063;-74
2024/01/29 02:58:38;;;;;;;;;53.60;42.80;;;;;4.73;74.23;102506.56;2011562;27;2871086;-74
2024/01/29 02:59:52;;;;;;;;;55.71;44.86;;;;;4.73;74.02;102506.56;2058769;27;3595003;-74
2024/01/29 03:01:03;;;;;;;;;50.00;42.00;;;;;4.72;74.18;102501.31;2014170;27;3601283;-74
2024/01/29 03:02:15;;;;;;;;;50.33;42.00;;;;;4.71;74.23;102505.66;2055661;27;3607514;-74
2024/01/29 03:03:27;;;;;;;;;58.00;45.00;;;;;4.70;74.08;102509.09;2020694;27;3587724;-74
2024/01/29 03:04:39;;;;;;;;;55.00;44.60;;;;;4.68;74.29;102495.19;2061937;27;3597067;-74
2024/01/29 03:05:51;;;;;;;;;46.00;39.20;;;;;4.68;74.23;102500.38;2070699;27;3590844;-74
2024/01/29 03:07:04;;;;;;;;;52.14;41.71;;;;;4.68;74.36;102504.72;2064933;27;3585660;-74
2024/01/29 03:08:16;;;;;;;;;53.00;42.80;;;;;4.68;74.20;102504.72;2029634;27;3610607;-74
2024/01/29 03:09:28;;;;;;;;;45.00;37.40;;;;;4.68;74.26;102507.31;2028010;27;3616032;-74
2024/01/29 03:10:40;;;;;;;;;53.00;42.67;;;;;4.66;74.55;102502.09;2028578;27;3612734;-74
2024/01/29 03:11:52;;;;;;;;;51.67;40.67;;;;;4.67;74.33;102503.81;2031703;27;3607552;-74
2024/01/29 03:13:05;;;;;;;;;52.71;43.29;;;;;4.66;74.20;102502.09;2032766;27;3592980;-74
2024/01/29 03:14:17;;;;;;;;;53.00;42.00;;;;;4.66;74.11;102498.59;2023998;27;3595366;-74
2024/01/29 03:15:29;;;;;;;;;51.67;42.67;;;;;4.65;74.27;102500.31;2031446;27;3604404;-74
2024/01/29 03:16:41;;;;;;;;;52.00;41.00;;;;;4.64;74.24;102508.13;2024408;27;3606496;-74
2024/01/29 03:17:54;;;;;;;;;51.43;39.57;;;;;4.64;74.20;102495.97;2032122;27;3604450;-74
2024/01/29 03:19:07;;;;;;;;;53.33;44.00;;;;;4.64;74.16;102506.41;2030062;27;3585679;-74
2024/01/29 03:20:18;;;;;;;;;48.67;40.00;;;;;4.64;74.43;102502.91;2036134;27;3602377;-74
2024/01/29 03:21:30;;;;;;;;;48.00;39.00;;;;;4.63;74.44;102506.34;2031067;27;3580463;-74
2024/01/29 03:22:42;;;;;;;;;51.67;40.33;;;;;4.62;74.30;102515.88;2053887;27;3605474;-74
2024/01/29 03:23:55;;;;;;;;;54.40;42.20;;;;;4.60;74.15;102512.38;2044384;27;3616850;-74
2024/01/29 03:25:07;;;;;;;;;52.00;42.00;;;;;4.62;74.46;102515.88;2018388;27;3600207;-74
2024/01/29 03:26:18;;;;;;;;;50.00;41.33;;;;;4.61;74.19;102515.03;2016225;27;3600304;-74
2024/01/29 03:27:29;;;;;;;;;53.40;44.40;;;;;4.63;74.32;102519.38;2035180;27;2868978;-74
2024/01/29 03:28:40;;;;;;;;;49.80;38.80;;;;;4.62;74.00;102521.09;2034403;27;2864856;-74
2024/01/29 03:29:52;;;;;;;;;54.33;42.00;;;;;4.62;73.94;102515.88;2045524;27;3610639;-74
2024/01/29 03:31:05;;;;;;;;;49.86;40.43;;;;;4.61;73.86;102511.53;2024340;27;3610659;-74
2024/01/29 03:32:17;;;;;;;;;51.33;39.33;;;;;4.60;74.16;102517.56;2024800;27;3613760;-74
2024/01/29 03:33:30;;;;;;;;;47.86;40.29;;;;;4.59;74.17;102516.69;2023830;27;3586710;-74
2024/01/29 03:34:43;;;;;;;;;50.71;40.43;;;;;4.59;74.12;102513.22;2026361;27;3591941;-74
2024/01/29 03:35:55;;;;;;;;;48.67;39.00;;;;;4.58;74.21;102516.66;2026549;27;3606479;-74
2024/01/29 03:37:07;;;;;;;;;47.00;40.00;;;;;4.57;74.07;102513.19;2023241;27;3589831;-74
2024/01/29 03:38:19;;;;;;;;;54.00;42.67;;;;;4.57;74.21;102518.38;2049419;27;3612755;-74
2024/01/29 03:39:31;;;;;;;;;49.67;40.33;;;;;4.56;74.09;102514.03;2023208;27;3604448;-74
2024/01/29 03:40:43;;;;;;;;;46.00;38.40;;;;;4.56;74.20;102511.44;2031812;27;3623131;-74
2024/01/29 03:41:56;;;;;;;;;49.60;39.40;;;;;4.55;74.13;102511.38;2038928;27;3611013;-74
2024/01/29 03:43:07;;;;;;;;;42.00;35.50;;;;;4.55;74.29;102511.38;2018178;27;2860657;-74
2024/01/29 03:44:18;;;;;;;;;46.00;39.00;;;;;4.55;74.11;102503.56;2026076;27;3592937;-74
2024/01/29 03:45:30;;;;;;;;;49.00;39.67;;;;;4.55;73.96;102506.19;2032419;27;3605451;-74
2024/01/29 03:46:43;;;;;;;;;45.71;39.14;;;;;4.54;74.35;102505.31;2032005;27;3603379;-74
2024/01/29 03:47:55;;;;;;;;;49.67;40.00;;;;;4.54;74.00;102501.84;2033783;27;3598208;-74
2024/01/29 03:49:07;;;;;;;;;41.00;35.80;;;;;4.53;74.09;102507.88;2035036;27;3617895;-74
2024/01/29 03:50:20;;;;;;;;;50.86;40.57;;;;;4.52;74.29;102498.31;2025889;27;3614832;-74
2024/01/29 03:51:32;;;;;;;;;50.00;40.67;;;;;4.52;74.25;102500.94;2027218;27;3594005;-74
2024/01/29 03:52:44;;;;;;;;;49.60;40.40;;;;;4.50;74.04;102495.66;2034241;27;3586001;-74
2024/01/29 03:53:56;;;;;;;;;52.00;39.00;;;;;4.50;73.83;102501.75;2048914;27;3592959;-74
2024/01/29 03:55:09;;;;;;;;;47.20;38.40;;;;;4.49;74.11;102499.13;2060795;27;3624145;-74
2024/01/29 03:56:20;;;;;;;;;50.33;40.67;;;;;4.50;74.21;102500.88;2006011;27;3602345;-74
2024/01/29 03:57:32;;;;;;;;;40.20;35.80;;;;;4.48;73.97;102498.25;2029064;27;3611668;-74
2024/01/29 03:58:44;;;;;;;;;40.33;35.00;;;;;4.49;73.89;102504.34;2022393;27;3608627;-74
2024/01/29 03:59:56;;;;;;;;;48.67;39.33;;;;;4.47;74.08;102498.22;2021879;27;3602856;-74
2024/01/29 04:01:08;;;;;;;;;43.60;38.40;;;;;4.47;73.92;102496.47;2026006;27;3597081;-74
2024/01/29 04:02:20;;;;;;;;;46.60;39.80;;;;;4.47;74.16;102501.69;2030106;27;3597105;-74
2024/01/29 04:03:32;;;;;;;;;48.67;39.33;;;;;4.46;74.26;102502.56;2025506;27;3593993;-74
2024/01/29 04:04:44;;;;;;;;;45.33;36.67;;;;;4.46;73.91;102507.75;2052742;27;3610659;-74
2024/01/29 04:05:56;;;;;;;;;42.80;36.20;;;;;4.46;73.54;102510.38;2036672;27;3615167;-74
2024/01/29 04:07:08;;;;;;;;;44.00;37.00;;;;;4.45;73.45;102503.38;2037945;27;3618294;-74
2024/01/29 04:08:21;;;;;;;;;47.20;38.60;;;;;4.45;73.93;102507.72;2025855;27;3606468;-74
2024/01/29 04:09:32;;;;;;;;;41.00;36.50;;;;;4.45;73.97;102506.00;2007632;27;2862732;-74
2024/01/29 04:10:43;;;;;;;;;40.40;34.20;;;;;4.44;73.91;102505.97;2020576;27;2863782;-74
2024/01/29 04:11:55;;;;;;;;;38.60;34.00;;;;;4.44;73.69;102505.97;2049745;27;3617895;-74
2024/01/29 04:13:07;;;;;;;;;39.00;33.00;;;;;4.43;73.73;102501.59;2047388;27;3590851;-74
2024/01/29 04:14:21;;;;;;;;;47.33;37.67;;;;;4.42;73.76;102500.72;2039967;27;3620010;-74
2024/01/29 04:15:32;;;;;;;;;40.50;34.00;;;;;4.42;73.83;102507.66;2008609;27;2861082;-74
2024/01/29 04:16:45;;;;;;;;;39.00;35.00;;;;;4.41;73.83;102505.88;2025186;27;3616934;-74
2024/01/29 04:17:56;;;;;;;;;40.00;36.00;;;;;4.41;73.74;102506.78;2041149;27;2876284;-74
2024/01/29 04:19:08;;;;;;;;;39.40;35.80;;;;;4.40;73.44;102515.41;2030144;27;3593937;-74
2024/01/29 04:20:20;;;;;;;;;43.60;37.00;;;;;4.37;73.87;102500.59;2006504;27;3598117;-74
2024/01/29 04:21:32;;;;;;;;;44.80;38.80;;;;;4.38;74.04;102506.69;2029446;27;3616867;-74
2024/01/29 04:22:44;;;;;;;;;40.60;35.60;;;;;4.38;73.88;102509.31;2043472;27;3610699;-74
2024/01/29 04:23:56;;;;;;;;;33.20;32.80;;;;;4.37;73.89;102508.41;2041540;27;3593941;-74
2024/01/29 04:25:08;;;;;;;;;40.80;35.80;;;;;4.37;74.05;102502.34;2038072;27;3603330;-74
2024/01/29 04:26:20;;;;;;;;;42.40;35.80;;;;;4.38;74.15;102501.50;2033499;27;3599176;-74
2024/01/29 04:27:32;;;;;;;;;36.40;34.40;;;;;4.39;74.30;102500.66;2036474;27;3606483;-74
2024/01/29 04:28:44;;;;;;;;;39.60;36.40;;;;;4.39;74.31;102511.06;2029645;27;3604471;-74
2024/01/29 04:29:56;;;;;;;;;32.40;31.60;;;;;4.40;74.05;102515.41;2031054;27;3600191;-74
2024/01/29 04:31:08;;;;;;;;;38.80;35.80;;;;;4.39;73.83;102508.47;2024378;27;3602262;-74
2024/01/29 04:32:20;;;;;;;;;39.60;33.20;;;;;4.39;73.88;102508.47;2036756;27;3620009;-74
2024/01/29 04:33:32;;;;;;;;;38.00;33.00;;;;;4.39;74.15;102500.66;2038568;27;3598119;-74
2024/01/29 04:34:44;;;;;;;;;35.40;30.40;;;;;4.39;74.09;102503.25;2038498;27;3603367;-74
2024/01/29 04:35:56;;;;;;;;;33.60;31.20;;;;;4.40;74.20;102494.59;2039610;27;3612679;-74
2024/01/29 04:37:08;;;;;;;;;38.40;32.00;;;;;4.40;74.43;102499.81;2031095;27;3616860;-74
2024/01/29 04:38:20;;;;;;;;;33.80;31.00;;;;;4.39;74.29;102505.88;2019422;27;3616931;-74
2024/01/29 04:39:33;;;;;;;;;33.43;29.71;;;;;4.40;74.33;102507.59;2036050;27;3616920;-74
2024/01/29 04:40:45;;;;;;;;;32.40;31.00;;;;;4.41;74.23;102504.19;2037531;27;3610613;-74
2024/01/29 04:41:56;;;;;;;;;35.33;32.00;;;;;4.41;74.54;102501.56;2035546;27;3588786;-74
2024/01/29 04:43:09;;;;;;;;;31.40;30.00;;;;;4.41;74.62;102505.88;2053363;27;3613767;-74
2024/01/29 04:44:20;;;;;;;;;30.60;28.00;;;;;4.42;74.29;102503.31;2026523;27;3592913;-74
2024/01/29 04:45:32;;;;;;;;;37.60;32.80;;;;;4.42;74.40;102503.31;2030860;27;3607547;-74
2024/01/29 04:46:43;;;;;;;;;37.00;32.40;;;;;4.43;74.50;102510.28;2013747;27;2858605;-74
2024/01/29 04:47:55;;;;;;;;;36.40;31.00;;;;;4.43;74.56;102507.69;2053662;27;3592911;-74
2024/01/29 04:49:07;;;;;;;;;39.00;33.20;;;;;4.45;74.76;102511.19;2053667;27;3567900;-74
2024/01/29 04:50:19;;;;;;;;;30.00;27.00;;;;;4.44;74.63;102512.06;2050742;27;3587057;-74
2024/01/29 04:51:31;;;;;;;;;26.00;23.33;;;;;4.45;74.71;102506.00;2033366;27;3579768;-74
2024/01/29 04:52:43;;;;;;;;;34.40;31.00;;;;;4.46;74.62;102510.38;2068364;27;3607501;-74
2024/01/29 04:53:55;;;;;;;;;34.00;29.60;;;;;4.45;74.81;102506.00;2042951;27;3604357;-74
2024/01/29 04:55:07;;;;;;;;;29.80;25.60;;;;;4.48;75.01;102497.38;2037801;27;3585624;-74
2024/01/29 04:56:19;;;;;;;;;32.60;29.80;;;;;4.47;74.70;102499.09;2058003;27;3604379;-74
2024/01/29 04:57:31;;;;;;;;;34.00;29.33;;;;;4.49;74.69;102504.34;2023719;27;3600290;-74
2024/01/29 04:58:43;;;;;;;;;34.80;32.20;;;;;4.48;74.23;102503.47;2045995;27;3603394;-74
2024/01/29 04:59:56;;;;;;;;;37.67;30.67;;;;;4.50;74.64;102503.47;2017472;27;3606487;-74
2024/01/29 05:01:08;;;;;;;;;29.33;29.33;;;;;4.50;74.74;102500.88;2006664;27;3601276;-74
2024/01/29 05:02:19;;;;;;;;;33.33;27.00;;;;;4.51;74.76;102500.03;2008510;27;3605436;-74
2024/01/29 05:03:32;;;;;;;;;24.67;23.00;;;;;4.51;75.09;102500.03;2024780;27;3572134;-74
2024/01/29 05:04:43;;;;;;;;;29.33;26.33;;;;;4.52;75.06;102511.34;2033423;27;3589845;-74
2024/01/29 05:05:56;;;;;;;;;26.60;26.40;;;;;4.52;74.96;102506.13;2036263;27;3574175;-74
2024/01/29 05:07:07;;;;;;;;;33.00;30.00;;;;;4.50;75.64;102509.56;2039119;27;3599244;-74
2024/01/29 05:08:19;;;;;;;;;25.60;25.00;;;;;4.52;75.40;102504.38;2053499;27;3572091;-74
2024/01/29 05:09:31;;;;;;;;;32.67;31.00;;;;;4.54;75.67;102502.72;2044465;27;3606482;-74
2024/01/29 05:10:43;;;;;;;;;33.20;30.00;;;;;4.55;75.28;102504.47;2029350;27;3605419;-74
2024/01/29 05:11:56;;;;;;;;;29.71;25.43;;;;;4.58;75.13;102511.47;2024196;27;3598163;-74
2024/01/29 05:13:08;;;;;;;;;31.40;28.60;;;;;4.57;74.99;102507.97;2029294;27;3605446;-74
2024/01/29 05:14:19;;;;;;;;;32.00;30.00;;;;;4.58;75.18;102508.84;2013317;27;2871198;-74
2024/01/29 05:15:31;;;;;;;;;29.80;27.80;;;;;4.58;75.43;102506.25;2058186;27;3589791;-74
2024/01/29 05:16:43;;;;;;;;;37.33;29.33;;;;;4.59;75.03;102515.84;2058620;27;3610699;-74
2024/01/29 05:17:55;;;;;;;;;31.40;25.20;;;;;4.60;75.03;102507.16;2029061;27;3603407;-74
2024/01/29 05:19:07;;;;;;;;;29.40;24.40;;;;;4.61;75.28;102511.53;2031370;27;3583536;-74
2024/01/29 05:20:18;;;;;;;;;30.40;28.60;;;;;4.61;74.96;102514.13;2036406;27;2864919;-74
2024/01/29 05:21:30;;;;;;;;;32.80;28.20;;;;;4.61;74.55;102512.41;2053176;27;3603342;-74
2024/01/29 05:22:42;;;;;;;;;25.20;24.00;;;;;4.62;74.89;102510.66;2060464;27;3582517;-74
2024/01/29 05:23:54;;;;;;;;;30.33;28.00;;;;;4.61;75.13;102515.03;2039076;27;3590879;-74